Chiricahua National Monument, Arizona
Current Conditions -  °F | °C
As of 10:51 PM on Wednesday 28 Jan 2015 (Local Time) from KSAD Reporting Station
Clear Clear  
Wind Chill: 53°   Ceiling: Unl
Heat Index: 53°   Visibility: 10mi
Dew Point: 36°   Wind: 3mph
Humidity: 52%   Direction: 180°S
Pressure: 30.13"   Gusts: NA
Location:  32.5598°N, 110.08°W
Report Text: KSAD 290551Z AUTO 18003KT 10SM CLR 12/02 A3013 RMK AO2 SLP179 T01170022 10222 20111 51011
Loading
Personal Weather Stations






























Interactive Weather Map New forecast layout! Learn more

10-Day Weather Forecast

Advertisements
Track Severe Weather on mobile